createdAt,value
2019-01-04T00:00:37.481Z,9.53
2019-01-04T00:03:07.003Z,11.00
2019-01-04T00:05:36.455Z,10.03
2019-01-04T00:08:05.968Z,10.97
2019-01-04T00:10:35.475Z,9.10
2019-01-04T00:13:05.036Z,11.33
2019-01-04T00:15:34.588Z,11.57
2019-01-04T00:18:04.054Z,7.80
2019-01-04T00:20:33.676Z,13.53
2019-01-04T00:23:03.296Z,10.97
2019-01-04T00:25:32.837Z,11.77
2019-01-04T00:28:02.378Z,9.93
2019-01-04T00:30:32.000Z,8.60
2019-01-04T00:33:01.585Z,10.23
2019-01-04T00:35:31.244Z,11.93
2019-01-04T00:38:00.759Z,9.73
2019-01-04T00:40:30.260Z,10.50
2019-01-04T00:42:59.781Z,13.10
2019-01-04T00:45:29.392Z,12.07
2019-01-04T00:47:58.961Z,12.03
2019-01-04T00:50:28.436Z,12.37
2019-01-04T00:52:57.985Z,13.30
2019-01-04T00:55:51.627Z,10.80
2019-01-04T00:58:59.136Z,12.73
2019-01-04T01:02:08.725Z,11.73
2019-01-04T01:05:25.687Z,14.10
2019-01-04T01:08:11.499Z,11.33
2019-01-04T01:11:09.526Z,11.80
2019-01-04T01:13:54.223Z,12.23
2019-01-04T01:16:58.956Z,12.37
2019-01-04T01:20:13.610Z,13.77
2019-01-04T01:23:16.778Z,11.83
2019-01-04T01:26:16.817Z,12.23
2019-01-04T01:29:21.761Z,13.87
2019-01-04T01:31:58.968Z,9.83
2019-01-04T01:34:48.112Z,13.70
2019-01-04T01:37:50.910Z,10.90
2019-01-04T01:40:51.961Z,11.57
2019-01-04T01:43:52.974Z,12.40
2019-01-04T01:46:46.249Z,13.47
2019-01-04T01:50:07.215Z,12.23
2019-01-04T01:52:46.306Z,16.00
2019-01-04T01:55:15.707Z,14.37
2019-01-04T01:57:45.104Z,12.60
2019-01-04T02:00:14.726Z,13.07
2019-01-04T02:02:44.215Z,12.83
2019-01-04T02:05:13.719Z,13.40
2019-01-04T02:07:43.235Z,12.87
2019-01-04T02:10:12.646Z,13.93
2019-01-04T02:12:42.129Z,15.73
2019-01-04T02:15:11.653Z,12.73
2019-01-04T02:17:41.154Z,11.27
2019-01-04T02:20:10.559Z,10.60
2019-01-04T02:22:39.979Z,12.67
2019-01-04T02:25:09.513Z,10.43
2019-01-04T02:27:38.959Z,12.83
2019-01-04T02:30:09.193Z,7.33
2019-01-04T02:32:38.687Z,12.57
2019-01-04T02:35:08.254Z,9.67
2019-01-04T02:37:37.671Z,12.93
2019-01-04T02:40:07.060Z,10.93
2019-01-04T02:42:36.466Z,13.17
2019-01-04T02:45:06.480Z,12.53
2019-01-04T02:47:35.952Z,12.27
2019-01-04T02:50:05.838Z,13.37
2019-01-04T02:52:35.248Z,12.63
2019-01-04T02:55:04.752Z,14.00
2019-01-04T02:57:34.252Z,12.13
2019-01-04T03:00:03.967Z,13.20
2019-01-04T03:02:33.426Z,13.73
2019-01-04T03:05:02.986Z,12.17
2019-01-04T03:07:32.571Z,16.30
2019-01-04T03:10:02.189Z,12.20
2019-01-04T03:12:32.016Z,11.40
2019-01-04T03:15:01.522Z,15.20
2019-01-04T03:17:31.037Z,15.20
2019-01-04T03:20:00.606Z,15.27
2019-01-04T03:22:30.071Z,13.83
2019-01-04T03:24:59.451Z,12.63
2019-01-04T03:27:28.884Z,13.23
2019-01-04T03:29:58.349Z,10.77
2019-01-04T03:32:28.198Z,11.27
2019-01-04T03:34:57.657Z,11.70
2019-01-04T03:37:27.145Z,14.17
2019-01-04T03:39:56.675Z,13.27
2019-01-04T03:42:26.360Z,15.63
2019-01-04T03:44:55.890Z,14.23
2019-01-04T03:47:25.313Z,11.17
2019-01-04T03:49:54.751Z,11.93
2019-01-04T03:52:24.283Z,12.57
2019-01-04T03:54:54.071Z,14.87
2019-01-04T03:57:23.581Z,13.37
2019-01-04T03:59:53.102Z,7.97
2019-01-04T04:02:22.561Z,11.77
2019-01-04T04:04:52.088Z,11.73
2019-01-04T04:07:21.618Z,11.77
2019-01-04T04:09:51.051Z,10.27
2019-01-04T04:12:20.579Z,11.67
2019-01-04T04:14:50.028Z,14.23
2019-01-04T04:17:19.465Z,10.70
2019-01-04T04:19:48.961Z,11.00
2019-01-04T04:22:18.392Z,16.17
2019-01-04T04:24:47.881Z,12.93
2019-01-04T04:27:17.374Z,11.37
2019-01-04T04:29:46.908Z,11.10
2019-01-04T04:32:16.472Z,10.50
2019-01-04T04:34:47.162Z,11.60
2019-01-04T04:37:16.552Z,11.20
2019-01-04T04:39:46.137Z,11.43
2019-01-04T04:42:15.628Z,11.63
2019-01-04T04:44:45.145Z,11.67
2019-01-04T04:47:14.574Z,10.47
2019-01-04T04:49:44.080Z,13.90
2019-01-04T04:52:13.552Z,9.40
2019-01-04T04:54:43.093Z,10.93
2019-01-04T04:57:12.522Z,9.93
2019-01-04T04:59:41.892Z,12.27
2019-01-04T05:02:11.323Z,8.83
2019-01-04T05:04:40.780Z,11.87
2019-01-04T05:07:10.201Z,15.10
2019-01-04T05:09:39.602Z,13.87
2019-01-04T05:12:09.086Z,13.33
2019-01-04T05:14:38.510Z,13.13
2019-01-04T05:17:07.926Z,12.27
2019-01-04T05:19:37.405Z,10.93
2019-01-04T05:22:06.808Z,11.90
2019-01-04T05:24:36.311Z,13.83
2019-01-04T05:27:05.701Z,14.03
2019-01-04T05:29:35.130Z,11.50
2019-01-04T05:32:04.613Z,12.63
2019-01-04T05:34:34.012Z,12.43
2019-01-04T05:37:03.485Z,14.77
2019-01-04T05:39:32.888Z,11.63
2019-01-04T05:42:02.418Z,10.50
2019-01-04T05:44:31.910Z,13.67
2019-01-04T05:47:01.320Z,12.33
2019-01-04T05:49:30.739Z,15.40
2019-01-04T05:52:00.168Z,14.70
2019-01-04T05:54:29.544Z,14.87
2019-01-04T05:56:58.967Z,13.00
2019-01-04T05:59:28.418Z,14.57
2019-01-04T06:01:57.922Z,16.13
2019-01-04T06:04:27.380Z,14.30
2019-01-04T06:06:56.801Z,13.90
2019-01-04T06:09:26.292Z,15.07
2019-01-04T06:11:55.738Z,14.43
2019-01-04T06:14:25.195Z,16.17
2019-01-04T06:16:54.609Z,14.70
2019-01-04T06:19:24.090Z,21.20
2019-01-04T06:21:53.506Z,15.77
2019-01-04T06:24:23.103Z,16.63
2019-01-04T06:26:52.527Z,13.97
2019-01-04T06:29:21.948Z,15.37
2019-01-04T06:31:51.386Z,14.77
2019-01-04T06:34:20.790Z,16.10
2019-01-04T06:36:50.444Z,18.50
2019-01-04T06:39:20.857Z,17.43
2019-01-04T06:41:50.363Z,15.70
2019-01-04T06:44:19.766Z,16.47
2019-01-04T06:47:12.396Z,15.93
2019-01-04T06:49:41.819Z,15.53
2019-01-04T06:52:11.289Z,17.97
2019-01-04T06:55:35.988Z,17.10
2019-01-04T06:58:05.483Z,16.13
2019-01-04T07:00:35.111Z,18.27
2019-01-04T07:03:04.668Z,15.97
2019-01-04T07:05:34.184Z,14.50
2019-01-04T07:08:03.711Z,18.63
2019-01-04T07:10:33.530Z,18.97
2019-01-04T07:13:03.190Z,17.93
2019-01-04T07:15:33.091Z,18.47
2019-01-04T07:18:02.634Z,17.97
2019-01-04T07:20:32.122Z,17.80
2019-01-04T07:23:01.666Z,16.20
2019-01-04T07:25:31.184Z,17.53
2019-01-04T07:28:00.743Z,15.40
2019-01-04T07:30:30.357Z,19.27
2019-01-04T07:32:59.822Z,20.20
2019-01-04T07:35:29.399Z,16.90
2019-01-04T07:37:58.839Z,19.33
2019-01-04T07:40:28.347Z,18.63
2019-01-04T07:42:59.902Z,18.07
2019-01-04T07:45:29.397Z,16.67
2019-01-04T07:47:59.048Z,15.93
2019-01-04T07:50:28.640Z,19.07
2019-01-04T07:52:58.211Z,17.43
2019-01-04T07:55:27.784Z,19.97
2019-01-04T07:57:57.371Z,19.00
2019-01-04T08:00:26.964Z,18.70
2019-01-04T08:02:58.963Z,20.70
2019-01-04T08:05:29.344Z,18.10
2019-01-04T08:07:58.957Z,18.17
2019-01-04T08:10:28.397Z,20.50
2019-01-04T08:12:57.818Z,18.47
2019-01-04T08:15:27.310Z,22.23
2019-01-04T08:17:56.946Z,19.60
2019-01-04T08:20:26.703Z,18.57
2019-01-04T08:22:56.157Z,26.50
2019-01-04T08:25:25.519Z,20.10
2019-01-04T08:27:54.913Z,18.53
2019-01-04T08:30:24.503Z,20.23
2019-01-04T08:32:54.191Z,18.40
2019-01-04T08:35:25.295Z,22.23
2019-01-04T08:37:54.761Z,21.17
2019-01-04T08:40:24.172Z,21.93
2019-01-04T08:42:54.281Z,25.50
2019-01-04T08:45:23.888Z,20.77
2019-01-04T08:47:53.405Z,27.30
2019-01-04T08:50:23.012Z,22.63
2019-01-04T08:52:52.485Z,21.77
2019-01-04T08:55:29.671Z,21.60
2019-01-04T08:57:59.059Z,21.13
2019-01-04T09:00:28.523Z,19.73
2019-01-04T09:02:58.015Z,23.57
2019-01-04T09:05:27.611Z,22.53
2019-01-04T09:07:57.573Z,22.93
2019-01-04T09:10:28.087Z,22.23
2019-01-04T09:13:41.123Z,22.40
2019-01-04T09:16:06.053Z,28.10
2019-01-04T09:18:35.527Z,24.90
2019-01-04T09:21:05.327Z,25.57
2019-01-04T09:23:35.853Z,26.53
2019-01-04T09:26:05.718Z,24.77
2019-01-04T09:28:35.474Z,26.83
2019-01-04T09:31:05.094Z,28.97
2019-01-04T09:33:34.602Z,28.20
2019-01-04T09:36:04.162Z,29.63
2019-01-04T09:38:33.607Z,31.87
2019-01-04T09:41:28.888Z,30.93
2019-01-04T09:43:58.637Z,30.50
2019-01-04T09:46:28.313Z,30.47
2019-01-04T09:48:58.040Z,27.60
2019-01-04T09:51:27.738Z,30.17
2019-01-04T09:53:57.348Z,39.77
2019-01-04T09:56:27.054Z,37.77
2019-01-04T09:58:56.591Z,37.23
2019-01-04T10:01:25.974Z,31.13
2019-01-04T10:03:55.376Z,34.83
2019-01-04T10:06:24.778Z,35.70
2019-01-04T10:08:54.481Z,38.50
2019-01-04T10:11:24.045Z,31.70
2019-01-04T10:13:53.489Z,35.77
2019-01-04T10:16:22.907Z,30.80
2019-01-04T10:18:52.293Z,36.47
2019-01-04T10:21:22.011Z,34.17
2019-01-04T10:23:51.505Z,41.80
2019-01-04T10:26:21.213Z,29.43
2019-01-04T10:28:51.195Z,38.67
2019-01-04T10:31:20.766Z,41.63
2019-01-04T10:33:50.151Z,36.97
2019-01-04T10:36:19.666Z,36.63
2019-01-04T10:38:49.456Z,44.27
2019-01-04T10:41:19.000Z,34.37
2019-01-04T10:43:48.425Z,41.50
2019-01-04T10:46:17.870Z,27.07
2019-01-04T10:48:47.277Z,33.17
2019-01-04T10:51:16.701Z,38.83
2019-01-04T10:53:46.102Z,37.57
2019-01-04T10:56:15.591Z,31.10
2019-01-04T10:58:45.014Z,30.37
2019-01-04T11:01:14.447Z,35.80
2019-01-04T11:03:43.885Z,31.30
2019-01-04T11:06:13.237Z,33.80
2019-01-04T11:08:42.626Z,34.83
2019-01-04T11:11:11.997Z,42.97
2019-01-04T11:13:41.378Z,35.67
2019-01-04T11:16:10.737Z,34.53
2019-01-04T11:18:40.183Z,31.77
2019-01-04T11:21:11.936Z,35.30
2019-01-04T11:24:08.043Z,30.47
2019-01-04T11:26:50.688Z,26.20
2019-01-04T11:29:57.208Z,30.63
2019-01-04T11:33:19.952Z,28.10
2019-01-04T11:36:12.793Z,26.87
2019-01-04T11:38:59.025Z,34.50
2019-01-04T11:42:00.714Z,26.43
2019-01-04T11:45:25.255Z,20.60
2019-01-04T11:48:12.220Z,24.73
2019-01-04T11:51:09.034Z,23.07
2019-01-04T11:53:38.400Z,21.20
2019-01-04T11:56:07.745Z,23.67
2019-01-04T11:58:37.130Z,24.30
2019-01-04T12:01:06.507Z,24.40
2019-01-04T12:03:35.870Z,25.83
2019-01-04T12:06:05.320Z,28.33
2019-01-04T12:08:34.691Z,25.93
2019-01-04T12:11:04.072Z,23.60
2019-01-04T12:13:33.488Z,24.33
2019-01-04T12:16:02.859Z,25.73
2019-01-04T12:18:32.226Z,26.10
2019-01-04T12:21:01.612Z,24.40
2019-01-04T12:23:31.425Z,25.83
2019-01-04T12:26:00.799Z,29.00
2019-01-04T12:28:30.247Z,22.83
2019-01-04T12:30:59.654Z,21.67
2019-01-04T12:33:29.017Z,22.70
2019-01-04T12:35:58.385Z,21.97
2019-01-04T12:38:27.743Z,21.87
2019-01-04T12:40:57.147Z,21.70
2019-01-04T12:43:26.548Z,22.80
2019-01-04T12:45:57.214Z,22.27
2019-01-04T12:48:26.575Z,20.93
2019-01-04T12:50:55.935Z,20.23
2019-01-04T12:53:25.296Z,23.97
2019-01-04T12:55:54.657Z,22.00
2019-01-04T12:58:24.046Z,21.37
2019-01-04T13:00:53.658Z,22.10
2019-01-04T13:03:23.001Z,20.97
2019-01-04T13:05:52.346Z,23.17
2019-01-04T13:08:21.748Z,21.53
2019-01-04T13:10:51.091Z,22.20
2019-01-04T13:13:20.578Z,20.73
2019-01-04T13:15:49.925Z,25.77
2019-01-04T13:18:19.285Z,26.37
2019-01-04T13:20:48.690Z,24.30
2019-01-04T13:23:18.061Z,25.87
2019-01-04T13:25:47.436Z,21.83
2019-01-04T13:28:16.825Z,22.57
2019-01-04T13:30:46.320Z,23.07
2019-01-04T13:33:15.670Z,22.50
2019-01-04T13:35:45.062Z,25.30
2019-01-04T13:38:19.898Z,24.37
2019-01-04T13:40:45.585Z,25.60
2019-01-04T13:43:14.955Z,22.67
2019-01-04T13:45:44.351Z,24.17
2019-01-04T13:48:13.763Z,22.30
2019-01-04T13:50:43.163Z,24.13
2019-01-04T13:53:12.526Z,22.97
2019-01-04T13:55:41.947Z,27.63
2019-01-04T13:58:11.303Z,25.50
2019-01-04T14:00:40.669Z,27.03
2019-01-04T14:03:10.077Z,21.80
2019-01-04T14:05:39.498Z,22.87
2019-01-04T14:08:08.943Z,22.70
2019-01-04T14:10:38.319Z,20.67
2019-01-04T14:13:09.360Z,20.77
2019-01-04T14:15:39.249Z,23.77
2019-01-04T14:18:08.820Z,25.80
2019-01-04T14:20:38.276Z,22.87
2019-01-04T14:23:07.655Z,24.33
2019-01-04T14:25:37.131Z,21.43
2019-01-04T14:28:06.565Z,21.87
2019-01-04T14:30:35.975Z,23.20
2019-01-04T14:33:05.424Z,19.70
2019-01-04T14:35:34.833Z,23.70
2019-01-04T14:38:04.262Z,22.30
2019-01-04T14:40:33.558Z,24.97
2019-01-04T14:43:02.981Z,20.00
2019-01-04T14:45:32.339Z,21.73
2019-01-04T14:48:01.743Z,24.60
2019-01-04T14:50:31.165Z,22.87
2019-01-04T14:53:00.541Z,20.53
2019-01-04T14:55:29.911Z,20.80
2019-01-04T14:57:59.516Z,22.10
2019-01-04T15:00:28.871Z,21.00
2019-01-04T15:02:58.324Z,26.10
2019-01-04T15:05:27.713Z,22.90
2019-01-04T15:07:57.102Z,18.97
2019-01-04T15:10:26.451Z,22.33
2019-01-04T15:12:55.824Z,23.83
2019-01-04T15:15:25.191Z,22.23
2019-01-04T15:17:54.547Z,23.43
2019-01-04T15:20:23.897Z,23.27
2019-01-04T15:22:53.239Z,24.17
2019-01-04T15:25:22.683Z,19.33
2019-01-04T15:27:52.033Z,19.93
2019-01-04T15:30:21.384Z,21.47
2019-01-04T15:32:50.781Z,23.17
2019-01-04T15:35:20.253Z,20.77
2019-01-04T15:37:49.588Z,19.30
2019-01-04T15:40:18.948Z,18.77
2019-01-04T15:42:48.296Z,19.23
2019-01-04T15:45:17.660Z,21.83
2019-01-04T15:47:47.064Z,18.03
2019-01-04T15:50:16.416Z,18.10
2019-01-04T15:52:45.858Z,19.87
2019-01-04T15:55:15.208Z,22.33
2019-01-04T15:57:44.617Z,19.80
2019-01-04T16:00:13.979Z,19.77
2019-01-04T16:02:43.316Z,20.13
2019-01-04T16:05:12.742Z,21.20
2019-01-04T16:07:42.089Z,21.63
2019-01-04T16:10:11.463Z,21.63
2019-01-04T16:12:40.815Z,19.00
2019-01-04T16:15:10.585Z,18.80
2019-01-04T16:17:40.028Z,17.93
2019-01-04T16:20:10.369Z,19.97
2019-01-04T16:22:39.715Z,18.93
2019-01-04T16:25:09.363Z,20.83
2019-01-04T16:27:38.758Z,18.27
2019-01-04T16:30:10.451Z,18.60
2019-01-04T16:32:39.825Z,22.17
2019-01-04T16:35:09.510Z,19.77
2019-01-04T16:37:38.908Z,20.10
2019-01-04T16:40:08.494Z,21.37
2019-01-04T16:42:37.843Z,17.20
